Cape Girardeau, MO (63701)

1:08 PM CDT on August 29, 2015 (GMT -0500)
Timber Creek | | Change Station
CLOSE
Current Station
Personal Weather Station
Location: Cape Girardeau, MO
Elevation: 440 ft
Nearby Weather Stations

Elev 440 ft 37.34 °N, 89.54 °W | Updated 2 minutes ago

Mostly Cloudy
Mostly Cloudy
81.6 °F
Feels Like 87 °F
N
0.0
Wind Variable Wind from SSE
Gusts 6.0 mph

Today
High -- | Low -- °F
--% Chance of Precip.
Yesterday
High -- | Low -- °F
Precip. -- in
6:26 AM 7:31 PM
Full, 100% visible
Pressure 30.05 in
Visibility 10.0 miles
Clouds Clear
Heat Index 87 °F
Dew Point 73 °F
Humidity 75%
Rainfall 0.04 in
Snow Depth Not available.
UV 7.0 out of 12
Pollen 10.50 out of 12
Air Quality Not available.
Flu Activity Not available.
METAR KCGI 291753Z 21007KT 180V250 10SM CLR 27/21 A3006 RMK AO2 SLP176 T02720211 10278 20206 58002
Pressure 30.05 in
Visibility 10.0 miles
Clouds Clear
Heat Index 87 °F
Dew Point 73 °F
Humidity 75%
Rainfall 0.04 in
Snow Depth Not available.
UV 7.0 out of 12
Pollen 10.50 out of 12
Air Quality Not available.
Flu Activity Not available.
METAR KCGI 291753Z 21007KT 180V250 10SM CLR 27/21 A3006 RMK AO2 SLP176 T02720211 10278 20206 58002

10-Day Weather Forecast

×

Almanac

Astronomy

Aug. 29, 2015 Rise Set
Actual Time
Civil Twilight
Nautical Twilight
Astronomical Twilight
Moon
Length of Visible Light
Length of Day
Tomorrow will be .
, % of the Moon is Illuminated

Today's Extremes

State Highs State Lows

Community

WunderPhotos

Upload Photos

1,850,750 photos uploaded!

WunderBlogs® & News

Nearby

Air Quality

  Air Quality AQ Index Pollutant
Not available.

Snow Depth

Station Depth Elevation

Earthquake Activity

City Distance Mag. Time & Date
Minimum magnitude displayed is 2.5.

Coastal Water Temperatures

Place Temperature

Stations

Nearby Weather Stations

Station Location Temp. Windchill Dew Point Humidity Wind Precip. Elev Updated Type